sensor_id;sensor_type;location;lat;lon;timestamp;P1;durP1;ratioP1;P2;durP2;ratioP2
1380;SDS011;684;48.342;10.096;2023-11-21T00:02:17;8.63;;;1.80;;
1380;SDS011;684;48.342;10.096;2023-11-21T00:04:44;14.23;;;2.90;;
1380;SDS011;684;48.342;10.096;2023-11-21T00:07:11;7.83;;;2.40;;
1380;SDS011;684;48.342;10.096;2023-11-21T00:09:37;5.50;;;1.20;;
1380;SDS011;684;48.342;10.096;2023-11-21T00:12:04;6.90;;;1.60;;
1380;SDS011;684;48.342;10.096;2023-11-21T00:14:35;6.00;;;1.90;;
1380;SDS011;684;48.342;10.096;2023-11-21T00:17:02;7.10;;;1.43;;
1380;SDS011;684;48.342;10.096;2023-11-21T00:19:30;9.10;;;1.80;;
1380;SDS011;684;48.342;10.096;2023-11-21T00:21:57;9.63;;;1.97;;
1380;SDS011;684;48.342;10.096;2023-11-21T00:24:24;5.43;;;1.33;;
1380;SDS011;684;48.342;10.096;2023-11-21T00:26:50;9.00;;;2.10;;
1380;SDS011;684;48.342;10.096;2023-11-21T00:29:18;6.63;;;1.93;;
1380;SDS011;684;48.342;10.096;2023-11-21T00:31:44;5.10;;;1.60;;
1380;SDS011;684;48.342;10.096;2023-11-21T00:34:11;5.93;;;1.70;;
1380;SDS011;684;48.342;10.096;2023-11-21T00:36:40;11.40;;;2.30;;
1380;SDS011;684;48.342;10.096;2023-11-21T00:39:07;7.57;;;2.20;;
1380;SDS011;684;48.342;10.096;2023-11-21T00:41:34;8.03;;;1.63;;
1380;SDS011;684;48.342;10.096;2023-11-21T00:44:01;5.30;;;1.17;;
1380;SDS011;684;48.342;10.096;2023-11-21T00:46:28;6.50;;;1.43;;
1380;SDS011;684;48.342;10.096;2023-11-21T00:48:55;7.77;;;1.50;;
1380;SDS011;684;48.342;10.096;2023-11-21T00:51:22;6.10;;;1.50;;
1380;SDS011;684;48.342;10.096;2023-11-21T00:53:50;7.23;;;1.83;;
1380;SDS011;684;48.342;10.096;2023-11-21T00:56:18;7.63;;;1.30;;
1380;SDS011;684;48.342;10.096;2023-11-21T00:58:45;5.40;;;2.10;;
1380;SDS011;684;48.342;10.096;2023-11-21T01:01:14;7.50;;;1.63;;
1380;SDS011;684;48.342;10.096;2023-11-21T01:03:41;5.30;;;1.47;;
1380;SDS011;684;48.342;10.096;2023-11-21T01:06:08;5.83;;;1.97;;
1380;SDS011;684;48.342;10.096;2023-11-21T01:08:35;6.20;;;1.90;;
1380;SDS011;684;48.342;10.096;2023-11-21T01:11:03;5.83;;;1.60;;
1380;SDS011;684;48.342;10.096;2023-11-21T01:13:32;6.37;;;1.60;;
1380;SDS011;684;48.342;10.096;2023-11-21T01:16:00;9.27;;;1.90;;
1380;SDS011;684;48.342;10.096;2023-11-21T01:18:27;6.27;;;1.57;;
1380;SDS011;684;48.342;10.096;2023-11-21T01:20:54;16.73;;;2.27;;
1380;SDS011;684;48.342;10.096;2023-11-21T01:23:21;4.60;;;1.33;;
1380;SDS011;684;48.342;10.096;2023-11-21T01:25:49;9.10;;;2.27;;
1380;SDS011;684;48.342;10.096;2023-11-21T01:28:18;6.13;;;2.13;;
1380;SDS011;684;48.342;10.096;2023-11-21T01:30:45;11.00;;;1.83;;
1380;SDS011;684;48.342;10.096;2023-11-21T01:33:12;8.40;;;2.10;;
1380;SDS011;684;48.342;10.096;2023-11-21T01:35:40;5.17;;;1.90;;
1380;SDS011;684;48.342;10.096;2023-11-21T01:38:07;7.57;;;1.70;;
1380;SDS011;684;48.342;10.096;2023-11-21T01:40:34;6.27;;;1.80;;
1380;SDS011;684;48.342;10.096;2023-11-21T01:43:01;5.70;;;1.80;;
1380;SDS011;684;48.342;10.096;2023-11-21T01:45:30;6.90;;;2.13;;
1380;SDS011;684;48.342;10.096;2023-11-21T01:47:58;6.40;;;1.40;;
1380;SDS011;684;48.342;10.096;2023-11-21T01:50:26;7.47;;;1.57;;
1380;SDS011;684;48.342;10.096;2023-11-21T01:52:54;7.87;;;3.97;;
1380;SDS011;684;48.342;10.096;2023-11-21T01:55:21;6.70;;;2.00;;
1380;SDS011;684;48.342;10.096;2023-11-21T01:57:48;8.07;;;2.20;;
1380;SDS011;684;48.342;10.096;2023-11-21T02:00:15;5.90;;;1.67;;
1380;SDS011;684;48.342;10.096;2023-11-21T02:02:46;10.27;;;2.03;;
1380;SDS011;684;48.342;10.096;2023-11-21T02:05:14;8.80;;;2.30;;
1380;SDS011;684;48.342;10.096;2023-11-21T02:07:42;6.50;;;1.30;;
1380;SDS011;684;48.342;10.096;2023-11-21T02:10:09;8.90;;;1.50;;
1380;SDS011;684;48.342;10.096;2023-11-21T02:12:39;7.40;;;1.80;;
1380;SDS011;684;48.342;10.096;2023-11-21T02:15:07;11.70;;;2.40;;
1380;SDS011;684;48.342;10.096;2023-11-21T02:17:40;10.23;;;1.87;;
1380;SDS011;684;48.342;10.096;2023-11-21T02:20:08;6.53;;;2.43;;
1380;SDS011;684;48.342;10.096;2023-11-21T02:22:40;6.17;;;1.80;;
1380;SDS011;684;48.342;10.096;2023-11-21T02:25:09;7.30;;;2.03;;
1380;SDS011;684;48.342;10.096;2023-11-21T02:27:36;7.93;;;2.37;;
1380;SDS011;684;48.342;10.096;2023-11-21T02:30:03;7.57;;;1.70;;
1380;SDS011;684;48.342;10.096;2023-11-21T02:32:32;6.10;;;2.00;;
1380;SDS011;684;48.342;10.096;2023-11-21T02:34:59;4.83;;;1.50;;
1380;SDS011;684;48.342;10.096;2023-11-21T02:37:28;13.10;;;1.97;;
1380;SDS011;684;48.342;10.096;2023-11-21T02:39:55;13.43;;;1.97;;
1380;SDS011;684;48.342;10.096;2023-11-21T02:42:23;5.10;;;1.33;;
1380;SDS011;684;48.342;10.096;2023-11-21T02:44:50;5.70;;;1.60;;
1380;SDS011;684;48.342;10.096;2023-11-21T02:47:17;8.20;;;1.90;;
1380;SDS011;684;48.342;10.096;2023-11-21T02:49:43;6.53;;;1.20;;
1380;SDS011;684;48.342;10.096;2023-11-21T02:52:10;8.83;;;1.60;;
1380;SDS011;684;48.342;10.096;2023-11-21T02:54:37;7.77;;;2.00;;
1380;SDS011;684;48.342;10.096;2023-11-21T02:57:04;6.37;;;1.50;;
1380;SDS011;684;48.342;10.096;2023-11-21T02:59:34;8.10;;;1.43;;
1380;SDS011;684;48.342;10.096;2023-11-21T03:02:00;7.37;;;1.40;;
1380;SDS011;684;48.342;10.096;2023-11-21T03:04:27;5.90;;;1.20;;
1380;SDS011;684;48.342;10.096;2023-11-21T03:06:54;6.97;;;1.43;;
1380;SDS011;684;48.342;10.096;2023-11-21T03:09:21;5.73;;;1.13;;
1380;SDS011;684;48.342;10.096;2023-11-21T03:11:48;6.37;;;1.50;;
1380;SDS011;684;48.342;10.096;2023-11-21T03:14:14;5.77;;;1.40;;
1380;SDS011;684;48.342;10.096;2023-11-21T03:16:42;5.00;;;1.00;;
1380;SDS011;684;48.342;10.096;2023-11-21T03:19:10;4.17;;;1.53;;
1380;SDS011;684;48.342;10.096;2023-11-21T03:21:37;5.43;;;1.17;;
1380;SDS011;684;48.342;10.096;2023-11-21T03:24:04;5.93;;;1.20;;
1380;SDS011;684;48.342;10.096;2023-11-21T03:26:32;6.13;;;1.60;;
1380;SDS011;684;48.342;10.096;2023-11-21T03:28:59;4.60;;;1.07;;
1380;SDS011;684;48.342;10.096;2023-11-21T03:31:26;5.17;;;1.17;;
1380;SDS011;684;48.342;10.096;2023-11-21T03:33:54;9.10;;;1.33;;
1380;SDS011;684;48.342;10.096;2023-11-21T03:36:22;7.97;;;1.37;;
1380;SDS011;684;48.342;10.096;2023-11-21T03:38:50;6.77;;;1.27;;
1380;SDS011;684;48.342;10.096;2023-11-21T03:41:17;5.53;;;1.30;;
1380;SDS011;684;48.342;10.096;2023-11-21T03:43:43;4.30;;;1.20;;
1380;SDS011;684;48.342;10.096;2023-11-21T03:46:10;4.47;;;1.30;;
1380;SDS011;684;48.342;10.096;2023-11-21T03:48:37;5.57;;;1.43;;
1380;SDS011;684;48.342;10.096;2023-11-21T03:51:05;6.60;;;1.47;;
1380;SDS011;684;48.342;10.096;2023-11-21T03:53:32;6.23;;;1.40;;
1380;SDS011;684;48.342;10.096;2023-11-21T03:56:02;4.00;;;0.80;;
1380;SDS011;684;48.342;10.096;2023-11-21T03:58:29;6.37;;;0.90;;
1380;SDS011;684;48.342;10.096;2023-11-21T04:00:56;6.53;;;1.03;;
1380;SDS011;684;48.342;10.096;2023-11-21T04:03:23;5.97;;;1.03;;
1380;SDS011;684;48.342;10.096;2023-11-21T04:05:50;4.70;;;0.90;;
1380;SDS011;684;48.342;10.096;2023-11-21T04:08:18;3.93;;;1.00;;
1380;SDS011;684;48.342;10.096;2023-11-21T04:10:45;6.50;;;1.30;;
1380;SDS011;684;48.342;10.096;2023-11-21T04:13:11;8.90;;;1.20;;
1380;SDS011;684;48.342;10.096;2023-11-21T04:15:38;7.10;;;1.37;;
1380;SDS011;684;48.342;10.096;2023-11-21T04:18:05;6.50;;;1.87;;
1380;SDS011;684;48.342;10.096;2023-11-21T04:20:32;6.10;;;1.30;;
1380;SDS011;684;48.342;10.096;2023-11-21T04:22:59;4.60;;;0.90;;
1380;SDS011;684;48.342;10.096;2023-11-21T04:25:27;7.03;;;1.20;;
1380;SDS011;684;48.342;10.096;2023-11-21T04:27:53;9.67;;;1.40;;
1380;SDS011;684;48.342;10.096;2023-11-21T04:30:20;4.57;;;1.40;;
1380;SDS011;684;48.342;10.096;2023-11-21T04:32:47;4.63;;;1.20;;
1380;SDS011;684;48.342;10.096;2023-11-21T04:35:14;5.63;;;1.40;;
1380;SDS011;684;48.342;10.096;2023-11-21T04:37:40;5.40;;;1.03;;
1380;SDS011;684;48.342;10.096;2023-11-21T04:40:08;4.80;;;1.43;;
1380;SDS011;684;48.342;10.096;2023-11-21T04:42:35;5.47;;;1.80;;
1380;SDS011;684;48.342;10.096;2023-11-21T04:45:03;3.80;;;1.20;;
1380;SDS011;684;48.342;10.096;2023-11-21T04:47:34;7.37;;;1.57;;
1380;SDS011;684;48.342;10.096;2023-11-21T04:50:01;5.50;;;1.53;;
1380;SDS011;684;48.342;10.096;2023-11-21T04:52:28;6.00;;;1.60;;
1380;SDS011;684;48.342;10.096;2023-11-21T04:54:55;9.13;;;1.93;;
1380;SDS011;684;48.342;10.096;2023-11-21T04:57:23;5.47;;;1.20;;
1380;SDS011;684;48.342;10.096;2023-11-21T04:59:51;5.63;;;1.43;;
1380;SDS011;684;48.342;10.096;2023-11-21T05:02:18;5.10;;;1.30;;
1380;SDS011;684;48.342;10.096;2023-11-21T05:04:46;4.50;;;1.20;;
1380;SDS011;684;48.342;10.096;2023-11-21T05:07:13;6.10;;;1.43;;
1380;SDS011;684;48.342;10.096;2023-11-21T05:09:41;4.07;;;1.70;;
1380;SDS011;684;48.342;10.096;2023-11-21T05:12:11;6.77;;;1.53;;
1380;SDS011;684;48.342;10.096;2023-11-21T05:14:37;7.47;;;3.10;;
1380;SDS011;684;48.342;10.096;2023-11-21T05:17:06;6.53;;;2.07;;
1380;SDS011;684;48.342;10.096;2023-11-21T05:19:33;5.10;;;2.20;;
1380;SDS011;684;48.342;10.096;2023-11-21T05:22:01;6.10;;;2.13;;
1380;SDS011;684;48.342;10.096;2023-11-21T05:24:28;7.73;;;2.30;;
1380;SDS011;684;48.342;10.096;2023-11-21T05:26:54;6.70;;;1.70;;
1380;SDS011;684;48.342;10.096;2023-11-21T05:29:22;7.83;;;1.50;;
1380;SDS011;684;48.342;10.096;2023-11-21T05:31:48;7.10;;;2.00;;
1380;SDS011;684;48.342;10.096;2023-11-21T05:34:17;5.73;;;1.90;;
1380;SDS011;684;48.342;10.096;2023-11-21T05:36:45;7.70;;;2.37;;
1380;SDS011;684;48.342;10.096;2023-11-21T05:39:13;6.00;;;2.23;;
1380;SDS011;684;48.342;10.096;2023-11-21T05:41:39;9.80;;;2.60;;
1380;SDS011;684;48.342;10.096;2023-11-21T05:44:06;6.70;;;3.10;;
1380;SDS011;684;48.342;10.096;2023-11-21T05:46:32;7.17;;;3.03;;
1380;SDS011;684;48.342;10.096;2023-11-21T05:48:59;7.50;;;3.80;;
1380;SDS011;684;48.342;10.096;2023-11-21T05:51:27;9.17;;;4.30;;
1380;SDS011;684;48.342;10.096;2023-11-21T05:53:54;7.90;;;4.00;;
1380;SDS011;684;48.342;10.096;2023-11-21T05:56:21;8.47;;;3.03;;
1380;SDS011;684;48.342;10.096;2023-11-21T05:58:47;8.77;;;3.30;;
1380;SDS011;684;48.342;10.096;2023-11-21T06:01:15;6.20;;;2.30;;
1380;SDS011;684;48.342;10.096;2023-11-21T06:03:42;15.73;;;7.00;;
1380;SDS011;684;48.342;10.096;2023-11-21T06:06:08;9.03;;;4.07;;
1380;SDS011;684;48.342;10.096;2023-11-21T06:08:36;7.77;;;1.50;;
1380;SDS011;684;48.342;10.096;2023-11-21T06:11:04;9.43;;;2.97;;
1380;SDS011;684;48.342;10.096;2023-11-21T06:13:30;7.37;;;3.53;;
1380;SDS011;684;48.342;10.096;2023-11-21T06:15:57;7.43;;;2.93;;
1380;SDS011;684;48.342;10.096;2023-11-21T06:18:25;6.77;;;2.40;;
1380;SDS011;684;48.342;10.096;2023-11-21T06:20:52;6.83;;;2.30;;
1380;SDS011;684;48.342;10.096;2023-11-21T06:23:18;13.87;;;2.07;;
1380;SDS011;684;48.342;10.096;2023-11-21T06:25:46;5.60;;;1.53;;
1380;SDS011;684;48.342;10.096;2023-11-21T06:28:13;8.67;;;3.13;;
1380;SDS011;684;48.342;10.096;2023-11-21T06:30:42;11.10;;;3.07;;
1380;SDS011;684;48.342;10.096;2023-11-21T06:33:10;6.00;;;2.47;;
1380;SDS011;684;48.342;10.096;2023-11-21T06:35:37;7.20;;;2.40;;
1380;SDS011;684;48.342;10.096;2023-11-21T06:38:05;6.03;;;2.37;;
1380;SDS011;684;48.342;10.096;2023-11-21T06:40:31;8.30;;;4.00;;
1380;SDS011;684;48.342;10.096;2023-11-21T06:43:00;9.27;;;4.37;;
1380;SDS011;684;48.342;10.096;2023-11-21T06:45:27;3.90;;;1.70;;
1380;SDS011;684;48.342;10.096;2023-11-21T06:47:54;6.00;;;1.40;;
1380;SDS011;684;48.342;10.096;2023-11-21T06:50:21;4.20;;;1.23;;
1380;SDS011;684;48.342;10.096;2023-11-21T06:52:47;5.10;;;1.70;;
1380;SDS011;684;48.342;10.096;2023-11-21T06:55:14;4.57;;;2.23;;
1380;SDS011;684;48.342;10.096;2023-11-21T06:57:42;4.40;;;1.77;;
1380;SDS011;684;48.342;10.096;2023-11-21T07:00:11;5.10;;;1.20;;
1380;SDS011;684;48.342;10.096;2023-11-21T07:02:39;5.90;;;2.30;;
1380;SDS011;684;48.342;10.096;2023-11-21T07:05:06;8.07;;;2.23;;
1380;SDS011;684;48.342;10.096;2023-11-21T07:07:33;4.50;;;1.40;;
1380;SDS011;684;48.342;10.096;2023-11-21T07:10:02;4.43;;;1.50;;
1380;SDS011;684;48.342;10.096;2023-11-21T07:12:29;6.30;;;1.83;;
1380;SDS011;684;48.342;10.096;2023-11-21T07:14:56;5.53;;;1.40;;
1380;SDS011;684;48.342;10.096;2023-11-21T07:17:24;4.03;;;1.50;;
1380;SDS011;684;48.342;10.096;2023-11-21T07:19:51;5.30;;;1.30;;
1380;SDS011;684;48.342;10.096;2023-11-21T07:22:17;5.60;;;1.53;;
1380;SDS011;684;48.342;10.096;2023-11-21T07:24:47;5.00;;;2.07;;
1380;SDS011;684;48.342;10.096;2023-11-21T07:27:14;7.63;;;1.57;;
1380;SDS011;684;48.342;10.096;2023-11-21T07:29:41;4.40;;;1.30;;
1380;SDS011;684;48.342;10.096;2023-11-21T07:32:08;4.63;;;1.10;;
1380;SDS011;684;48.342;10.096;2023-11-21T07:34:36;6.00;;;1.47;;
1380;SDS011;684;48.342;10.096;2023-11-21T07:37:03;3.97;;;1.10;;
1380;SDS011;684;48.342;10.096;2023-11-21T07:39:31;4.60;;;1.10;;
1380;SDS011;684;48.342;10.096;2023-11-21T07:41:58;8.80;;;1.50;;
1380;SDS011;684;48.342;10.096;2023-11-21T07:44:24;7.37;;;1.60;;
1380;SDS011;684;48.342;10.096;2023-11-21T07:46:51;4.23;;;1.23;;
1380;SDS011;684;48.342;10.096;2023-11-21T07:49:22;9.07;;;1.73;;
1380;SDS011;684;48.342;10.096;2023-11-21T07:51:50;3.70;;;1.50;;
1380;SDS011;684;48.342;10.096;2023-11-21T07:54:17;7.53;;;1.80;;
1380;SDS011;684;48.342;10.096;2023-11-21T07:56:44;6.20;;;2.03;;
1380;SDS011;684;48.342;10.096;2023-11-21T07:59:10;9.23;;;1.50;;
1380;SDS011;684;48.342;10.096;2023-11-21T08:01:37;4.63;;;1.73;;
1380;SDS011;684;48.342;10.096;2023-11-21T08:04:05;4.97;;;1.60;;
1380;SDS011;684;48.342;10.096;2023-11-21T08:06:33;5.60;;;2.27;;
1380;SDS011;684;48.342;10.096;2023-11-21T08:09:01;5.73;;;1.63;;
1380;SDS011;684;48.342;10.096;2023-11-21T08:11:28;3.83;;;1.30;;
1380;SDS011;684;48.342;10.096;2023-11-21T08:13:57;5.37;;;1.37;;
1380;SDS011;684;48.342;10.096;2023-11-21T08:16:24;8.70;;;1.53;;
1380;SDS011;684;48.342;10.096;2023-11-21T08:18:50;6.33;;;1.57;;
1380;SDS011;684;48.342;10.096;2023-11-21T08:21:17;7.83;;;2.40;;
1380;SDS011;684;48.342;10.096;2023-11-21T08:23:45;4.90;;;1.57;;
1380;SDS011;684;48.342;10.096;2023-11-21T08:26:15;5.07;;;1.60;;
1380;SDS011;684;48.342;10.096;2023-11-21T08:28:43;6.63;;;1.83;;
1380;SDS011;684;48.342;10.096;2023-11-21T08:31:10;4.97;;;1.50;;
1380;SDS011;684;48.342;10.096;2023-11-21T08:33:36;7.00;;;2.17;;
1380;SDS011;684;48.342;10.096;2023-11-21T08:36:06;5.63;;;1.60;;
1380;SDS011;684;48.342;10.096;2023-11-21T08:38:33;6.60;;;2.10;;
1380;SDS011;684;48.342;10.096;2023-11-21T08:41:02;8.80;;;1.63;;
1380;SDS011;684;48.342;10.096;2023-11-21T08:43:33;8.20;;;2.10;;
1380;SDS011;684;48.342;10.096;2023-11-21T08:46:00;4.10;;;1.53;;
1380;SDS011;684;48.342;10.096;2023-11-21T08:48:28;5.77;;;1.83;;
1380;SDS011;684;48.342;10.096;2023-11-21T08:50:55;4.30;;;1.70;;
1380;SDS011;684;48.342;10.096;2023-11-21T08:53:22;5.27;;;1.87;;
1380;SDS011;684;48.342;10.096;2023-11-21T08:55:51;9.30;;;2.07;;
1380;SDS011;684;48.342;10.096;2023-11-21T08:58:19;5.07;;;1.90;;
1380;SDS011;684;48.342;10.096;2023-11-21T09:00:48;8.13;;;1.90;;
1380;SDS011;684;48.342;10.096;2023-11-21T09:03:14;5.33;;;1.80;;
1380;SDS011;684;48.342;10.096;2023-11-21T09:05:41;3.93;;;1.80;;
1380;SDS011;684;48.342;10.096;2023-11-21T09:08:08;6.30;;;2.00;;
1380;SDS011;684;48.342;10.096;2023-11-21T09:10:34;5.40;;;2.30;;
1380;SDS011;684;48.342;10.096;2023-11-21T09:13:02;4.80;;;2.20;;
1380;SDS011;684;48.342;10.096;2023-11-21T09:15:28;6.73;;;2.60;;
1380;SDS011;684;48.342;10.096;2023-11-21T09:17:56;4.73;;;2.40;;
1380;SDS011;684;48.342;10.096;2023-11-21T09:20:23;5.63;;;2.10;;
1380;SDS011;684;48.342;10.096;2023-11-21T09:22:50;7.53;;;2.33;;
1380;SDS011;684;48.342;10.096;2023-11-21T09:25:17;7.43;;;2.67;;
1380;SDS011;684;48.342;10.096;2023-11-21T09:27:44;5.83;;;2.60;;
1380;SDS011;684;48.342;10.096;2023-11-21T09:30:11;6.30;;;2.60;;
1380;SDS011;684;48.342;10.096;2023-11-21T09:32:39;6.93;;;2.97;;
1380;SDS011;684;48.342;10.096;2023-11-21T09:35:10;7.53;;;3.20;;
1380;SDS011;684;48.342;10.096;2023-11-21T09:37:39;5.20;;;3.30;;
1380;SDS011;684;48.342;10.096;2023-11-21T09:40:06;7.17;;;3.47;;
1380;SDS011;684;48.342;10.096;2023-11-21T09:42:39;5.80;;;2.60;;
1380;SDS011;684;48.342;10.096;2023-11-21T09:45:10;7.43;;;2.93;;
1380;SDS011;684;48.342;10.096;2023-11-21T09:47:45;6.80;;;2.80;;
1380;SDS011;684;48.342;10.096;2023-11-21T09:50:14;7.30;;;3.53;;
1380;SDS011;684;48.342;10.096;2023-11-21T09:52:51;5.17;;;2.30;;
1380;SDS011;684;48.342;10.096;2023-11-21T09:55:22;4.87;;;2.10;;
1380;SDS011;684;48.342;10.096;2023-11-21T09:57:53;5.50;;;2.20;;
1380;SDS011;684;48.342;10.096;2023-11-21T10:00:22;4.50;;;1.63;;
1380;SDS011;684;48.342;10.096;2023-11-21T10:02:49;6.07;;;2.07;;
1380;SDS011;684;48.342;10.096;2023-11-21T10:05:19;4.37;;;2.10;;
1380;SDS011;684;48.342;10.096;2023-11-21T10:07:47;5.10;;;1.90;;
1380;SDS011;684;48.342;10.096;2023-11-21T10:10:16;3.97;;;1.73;;
1380;SDS011;684;48.342;10.096;2023-11-21T10:12:48;7.13;;;2.13;;
1380;SDS011;684;48.342;10.096;2023-11-21T10:15:18;5.43;;;2.20;;
1380;SDS011;684;48.342;10.096;2023-11-21T10:17:48;4.63;;;2.00;;
1380;SDS011;684;48.342;10.096;2023-11-21T10:20:19;4.30;;;2.27;;
1380;SDS011;684;48.342;10.096;2023-11-21T10:22:46;4.93;;;2.07;;
1380;SDS011;684;48.342;10.096;2023-11-21T10:25:13;6.03;;;2.50;;
1380;SDS011;684;48.342;10.096;2023-11-21T10:27:40;9.80;;;2.00;;
1380;SDS011;684;48.342;10.096;2023-11-21T10:30:08;4.63;;;2.20;;
1380;SDS011;684;48.342;10.096;2023-11-21T10:32:37;5.83;;;2.57;;
1380;SDS011;684;48.342;10.096;2023-11-21T10:35:05;6.37;;;2.13;;
1380;SDS011;684;48.342;10.096;2023-11-21T10:37:36;4.97;;;1.57;;
1380;SDS011;684;48.342;10.096;2023-11-21T10:40:05;3.90;;;1.80;;
1380;SDS011;684;48.342;10.096;2023-11-21T10:42:36;6.77;;;2.23;;
1380;SDS011;684;48.342;10.096;2023-11-21T10:45:03;4.90;;;1.90;;
1380;SDS011;684;48.342;10.096;2023-11-21T10:47:36;5.97;;;1.93;;
1380;SDS011;684;48.342;10.096;2023-11-21T10:50:05;6.10;;;2.20;;
1380;SDS011;684;48.342;10.096;2023-11-21T10:52:37;3.83;;;1.63;;
1380;SDS011;684;48.342;10.096;2023-11-21T10:55:15;4.93;;;2.00;;
1380;SDS011;684;48.342;10.096;2023-11-21T10:57:44;6.33;;;2.10;;
1380;SDS011;684;48.342;10.096;2023-11-21T11:00:14;5.17;;;1.93;;
1380;SDS011;684;48.342;10.096;2023-11-21T11:02:45;5.50;;;1.87;;
1380;SDS011;684;48.342;10.096;2023-11-21T11:05:14;6.53;;;1.70;;
1380;SDS011;684;48.342;10.096;2023-11-21T11:07:46;4.90;;;1.47;;
1380;SDS011;684;48.342;10.096;2023-11-21T11:10:17;4.10;;;1.47;;
1380;SDS011;684;48.342;10.096;2023-11-21T11:12:46;5.43;;;1.47;;
1380;SDS011;684;48.342;10.096;2023-11-21T11:15:13;4.20;;;1.47;;
1380;SDS011;684;48.342;10.096;2023-11-21T11:17:42;4.30;;;1.40;;
1380;SDS011;684;48.342;10.096;2023-11-21T11:20:10;4.53;;;1.60;;
1380;SDS011;684;48.342;10.096;2023-11-21T11:22:42;5.10;;;1.60;;
1380;SDS011;684;48.342;10.096;2023-11-21T11:25:21;3.73;;;1.10;;
1380;SDS011;684;48.342;10.096;2023-11-21T11:27:59;3.17;;;0.90;;
1380;SDS011;684;48.342;10.096;2023-11-21T11:30:35;3.10;;;1.10;;
1380;SDS011;684;48.342;10.096;2023-11-21T11:33:12;3.30;;;0.90;;
1380;SDS011;684;48.342;10.096;2023-11-21T11:35:52;3.70;;;0.90;;
1380;SDS011;684;48.342;10.096;2023-11-21T11:38:23;3.87;;;0.90;;
1380;SDS011;684;48.342;10.096;2023-11-21T11:40:54;3.50;;;1.03;;
1380;SDS011;684;48.342;10.096;2023-11-21T11:43:27;4.10;;;1.43;;
1380;SDS011;684;48.342;10.096;2023-11-21T11:45:55;2.97;;;0.77;;
1380;SDS011;684;48.342;10.096;2023-11-21T11:48:24;3.00;;;0.70;;
1380;SDS011;684;48.342;10.096;2023-11-21T11:51:03;3.60;;;0.87;;
1380;SDS011;684;48.342;10.096;2023-11-21T11:53:35;3.73;;;1.00;;
1380;SDS011;684;48.342;10.096;2023-11-21T11:56:21;3.53;;;0.93;;
1380;SDS011;684;48.342;10.096;2023-11-21T11:58:52;4.23;;;1.80;;
1380;SDS011;684;48.342;10.096;2023-11-21T12:01:20;5.70;;;1.73;;
1380;SDS011;684;48.342;10.096;2023-11-21T12:06:56;3.50;;;1.10;;
1380;SDS011;684;48.342;10.096;2023-11-21T12:09:27;3.60;;;1.30;;
1380;SDS011;684;48.342;10.096;2023-11-21T12:11:57;3.90;;;1.33;;
1380;SDS011;684;48.342;10.096;2023-11-21T12:14:25;5.10;;;1.30;;
1380;SDS011;684;48.342;10.096;2023-11-21T12:16:52;3.80;;;1.20;;
1380;SDS011;684;48.342;10.096;2023-11-21T12:19:20;3.47;;;1.57;;
1380;SDS011;684;48.342;10.096;2023-11-21T12:21:48;3.63;;;1.30;;
1380;SDS011;684;48.342;10.096;2023-11-21T12:24:15;3.90;;;0.90;;
1380;SDS011;684;48.342;10.096;2023-11-21T12:26:42;3.30;;;0.90;;
1380;SDS011;684;48.342;10.096;2023-11-21T12:29:11;3.60;;;1.10;;
1380;SDS011;684;48.342;10.096;2023-11-21T12:31:38;3.70;;;1.27;;
1380;SDS011;684;48.342;10.096;2023-11-21T12:34:06;3.90;;;1.20;;
1380;SDS011;684;48.342;10.096;2023-11-21T12:36:34;3.30;;;1.10;;
1380;SDS011;684;48.342;10.096;2023-11-21T12:39:01;6.07;;;1.40;;
1380;SDS011;684;48.342;10.096;2023-11-21T12:41:28;3.80;;;1.10;;
1380;SDS011;684;48.342;10.096;2023-11-21T12:43:56;5.70;;;1.90;;
1380;SDS011;684;48.342;10.096;2023-11-21T12:46:25;4.63;;;2.00;;
1380;SDS011;684;48.342;10.096;2023-11-21T12:48:55;5.40;;;1.57;;
1380;SDS011;684;48.342;10.096;2023-11-21T12:51:23;3.40;;;1.20;;
1380;SDS011;684;48.342;10.096;2023-11-21T12:53:50;3.13;;;0.87;;
1380;SDS011;684;48.342;10.096;2023-11-21T12:56:18;3.20;;;0.83;;
1380;SDS011;684;48.342;10.096;2023-11-21T12:58:49;4.10;;;0.90;;
1380;SDS011;684;48.342;10.096;2023-11-21T13:01:16;3.57;;;0.97;;
1380;SDS011;684;48.342;10.096;2023-11-21T13:03:47;3.27;;;1.23;;
1380;SDS011;684;48.342;10.096;2023-11-21T13:06:16;3.47;;;1.40;;
1380;SDS011;684;48.342;10.096;2023-11-21T13:08:44;3.40;;;1.20;;
1380;SDS011;684;48.342;10.096;2023-11-21T13:11:11;4.67;;;1.00;;
1380;SDS011;684;48.342;10.096;2023-11-21T13:13:40;3.53;;;1.30;;
1380;SDS011;684;48.342;10.096;2023-11-21T13:16:07;4.60;;;0.97;;
1380;SDS011;684;48.342;10.096;2023-11-21T13:18:35;3.20;;;1.40;;
1380;SDS011;684;48.342;10.096;2023-11-21T13:21:04;3.40;;;1.20;;
1380;SDS011;684;48.342;10.096;2023-11-21T13:23:36;3.50;;;0.87;;
1380;SDS011;684;48.342;10.096;2023-11-21T13:26:03;4.17;;;1.97;;
1380;SDS011;684;48.342;10.096;2023-11-21T13:28:30;4.10;;;2.00;;
1380;SDS011;684;48.342;10.096;2023-11-21T13:30:58;3.67;;;1.83;;
1380;SDS011;684;48.342;10.096;2023-11-21T13:33:28;3.40;;;1.13;;
1380;SDS011;684;48.342;10.096;2023-11-21T13:35:55;3.67;;;1.07;;
1380;SDS011;684;48.342;10.096;2023-11-21T13:38:24;3.80;;;1.23;;
1380;SDS011;684;48.342;10.096;2023-11-21T13:40:57;3.30;;;1.00;;
1380;SDS011;684;48.342;10.096;2023-11-21T13:43:25;3.80;;;1.70;;
1380;SDS011;684;48.342;10.096;2023-11-21T13:45:53;3.60;;;1.03;;
1380;SDS011;684;48.342;10.096;2023-11-21T13:48:25;3.40;;;1.20;;
1380;SDS011;684;48.342;10.096;2023-11-21T13:50:57;4.23;;;1.60;;
1380;SDS011;684;48.342;10.096;2023-11-21T13:53:32;3.50;;;1.47;;
1380;SDS011;684;48.342;10.096;2023-11-21T13:56:01;3.20;;;1.20;;
1380;SDS011;684;48.342;10.096;2023-11-21T13:58:28;3.20;;;0.90;;
1380;SDS011;684;48.342;10.096;2023-11-21T14:01:06;3.10;;;0.70;;
1380;SDS011;684;48.342;10.096;2023-11-21T14:03:41;3.50;;;1.37;;
1380;SDS011;684;48.342;10.096;2023-11-21T14:06:17;3.23;;;0.93;;
1380;SDS011;684;48.342;10.096;2023-11-21T14:08:50;3.27;;;0.90;;
1380;SDS011;684;48.342;10.096;2023-11-21T14:11:18;3.10;;;0.73;;
1380;SDS011;684;48.342;10.096;2023-11-21T14:13:47;3.30;;;0.90;;
1380;SDS011;684;48.342;10.096;2023-11-21T14:16:14;3.00;;;0.83;;
1380;SDS011;684;48.342;10.096;2023-11-21T14:18:42;3.20;;;1.00;;
1380;SDS011;684;48.342;10.096;2023-11-21T14:21:22;3.40;;;1.10;;
1380;SDS011;684;48.342;10.096;2023-11-21T14:23:50;3.37;;;1.00;;
1380;SDS011;684;48.342;10.096;2023-11-21T14:26:17;3.40;;;1.00;;
1380;SDS011;684;48.342;10.096;2023-11-21T14:28:44;3.57;;;0.90;;
1380;SDS011;684;48.342;10.096;2023-11-21T14:31:13;3.30;;;0.90;;
1380;SDS011;684;48.342;10.096;2023-11-21T14:33:42;4.13;;;1.40;;
1380;SDS011;684;48.342;10.096;2023-11-21T14:36:10;4.17;;;1.60;;
1380;SDS011;684;48.342;10.096;2023-11-21T14:38:37;3.73;;;1.37;;
1380;SDS011;684;48.342;10.096;2023-11-21T14:41:06;4.07;;;0.90;;
1380;SDS011;684;48.342;10.096;2023-11-21T14:43:33;3.30;;;0.90;;
1380;SDS011;684;48.342;10.096;2023-11-21T14:46:00;3.77;;;1.43;;
1380;SDS011;684;48.342;10.096;2023-11-21T14:48:28;3.07;;;0.90;;
1380;SDS011;684;48.342;10.096;2023-11-21T14:51:07;3.50;;;1.00;;
1380;SDS011;684;48.342;10.096;2023-11-21T14:53:55;3.00;;;0.70;;
1380;SDS011;684;48.342;10.096;2023-11-21T14:56:26;4.50;;;1.00;;
1380;SDS011;684;48.342;10.096;2023-11-21T14:58:56;4.80;;;1.10;;
1380;SDS011;684;48.342;10.096;2023-11-21T15:01:30;5.50;;;2.30;;
1380;SDS011;684;48.342;10.096;2023-11-21T15:04:09;6.60;;;2.33;;
1380;SDS011;684;48.342;10.096;2023-11-21T15:06:45;6.60;;;2.83;;
1380;SDS011;684;48.342;10.096;2023-11-21T15:09:13;6.83;;;3.33;;
1380;SDS011;684;48.342;10.096;2023-11-21T15:12:06;5.47;;;2.17;;
1380;SDS011;684;48.342;10.096;2023-11-21T15:14:39;3.77;;;1.33;;
1380;SDS011;684;48.342;10.096;2023-11-21T15:17:08;3.50;;;1.20;;
1380;SDS011;684;48.342;10.096;2023-11-21T15:19:35;3.73;;;1.10;;
1380;SDS011;684;48.342;10.096;2023-11-21T15:22:02;4.43;;;1.83;;
1380;SDS011;684;48.342;10.096;2023-11-21T15:24:29;5.07;;;1.90;;
1380;SDS011;684;48.342;10.096;2023-11-21T15:26:56;5.83;;;3.43;;